createdAt,value
2018-08-20T00:01:28.308Z,15.08
2018-08-20T00:04:00.207Z,12.17
2018-08-20T00:06:34.675Z,12.80
2018-08-20T00:09:04.296Z,11.70
2018-08-20T00:11:33.547Z,12.10
2018-08-20T00:14:02.835Z,12.43
2018-08-20T00:16:32.078Z,13.93
2018-08-20T00:19:01.323Z,12.57
2018-08-20T00:21:30.636Z,12.73
2018-08-20T00:23:59.894Z,14.00
2018-08-20T00:26:29.526Z,12.40
2018-08-20T00:28:58.782Z,12.20
2018-08-20T00:31:28.010Z,11.30
2018-08-20T00:33:57.241Z,12.27
2018-08-20T00:36:26.487Z,12.70
2018-08-20T00:38:55.727Z,12.87
2018-08-20T00:41:24.960Z,12.60
2018-08-20T00:43:54.235Z,12.63
2018-08-20T00:46:23.525Z,12.23
2018-08-20T00:48:52.751Z,12.87
2018-08-20T00:51:22.020Z,13.30
2018-08-20T00:53:51.256Z,13.30
2018-08-20T00:56:20.497Z,12.23
2018-08-20T00:58:49.751Z,13.13
2018-08-20T01:01:18.995Z,12.27
2018-08-20T01:03:48.336Z,11.97
2018-08-20T01:06:17.580Z,11.73
2018-08-20T01:08:46.835Z,11.95
2018-08-20T01:11:16.835Z,12.35
2018-08-20T01:13:46.159Z,12.53
2018-08-20T01:16:15.420Z,13.37
2018-08-20T01:18:44.673Z,13.30
2018-08-20T01:21:13.999Z,12.60
2018-08-20T01:23:43.612Z,15.00
2018-08-20T01:26:12.993Z,12.50
2018-08-20T01:28:42.231Z,12.57
2018-08-20T01:31:11.471Z,13.40
2018-08-20T01:33:40.738Z,13.27
2018-08-20T01:36:09.982Z,13.83
2018-08-20T01:38:39.275Z,13.63
2018-08-20T01:41:08.531Z,13.00
2018-08-20T01:43:37.758Z,14.13
2018-08-20T01:46:07.000Z,13.57
2018-08-20T01:48:36.240Z,13.67
2018-08-20T01:51:05.506Z,13.17
2018-08-20T01:53:34.746Z,12.27
2018-08-20T01:56:04.026Z,12.60
2018-08-20T01:58:33.251Z,12.37
2018-08-20T02:01:02.482Z,11.87
2018-08-20T02:03:31.858Z,11.90
2018-08-20T02:06:01.108Z,11.60
2018-08-20T02:08:30.390Z,12.30
2018-08-20T02:10:59.632Z,12.30
2018-08-20T02:13:28.870Z,12.57
2018-08-20T02:15:58.123Z,10.93
2018-08-20T02:18:27.383Z,12.10
2018-08-20T02:20:56.629Z,12.30
2018-08-20T02:23:25.899Z,12.20
2018-08-20T02:25:55.178Z,12.77
2018-08-20T02:28:24.462Z,13.53
2018-08-20T02:30:53.770Z,12.50
2018-08-20T02:33:23.022Z,11.73
2018-08-20T02:40:49.211Z,11.70
2018-08-20T02:43:18.436Z,10.73
2018-08-20T02:45:47.883Z,11.90
2018-08-20T02:48:17.130Z,11.77
2018-08-20T02:50:46.389Z,11.43
2018-08-20T02:53:15.661Z,12.20
2018-08-20T02:55:44.908Z,11.83
2018-08-20T02:58:14.163Z,11.50
2018-08-20T03:00:43.423Z,11.43
2018-08-20T03:03:12.651Z,11.23
2018-08-20T03:05:41.902Z,10.83
2018-08-20T03:08:11.171Z,12.53
2018-08-20T03:10:40.410Z,12.77
2018-08-20T03:13:09.647Z,12.30
2018-08-20T03:15:38.888Z,11.88
2018-08-20T03:18:08.200Z,13.90
2018-08-20T03:20:37.448Z,11.67
2018-08-20T03:23:07.078Z,11.60
2018-08-20T03:25:36.339Z,12.10
2018-08-20T03:28:05.634Z,12.00
2018-08-20T03:30:34.886Z,12.37
2018-08-20T03:33:04.227Z,12.93
2018-08-20T03:35:33.465Z,12.77
2018-08-20T03:38:02.727Z,13.60
2018-08-20T03:40:31.982Z,11.53
2018-08-20T03:43:01.224Z,12.43
2018-08-20T03:45:30.465Z,11.80
2018-08-20T03:47:59.709Z,12.47
2018-08-20T03:50:28.971Z,12.27
2018-08-20T03:52:58.214Z,12.00
2018-08-20T03:55:28.693Z,13.23
2018-08-20T03:57:57.945Z,14.30
2018-08-20T04:00:27.192Z,12.43
2018-08-20T04:02:56.430Z,12.55
2018-08-20T04:05:25.691Z,12.37
2018-08-20T04:07:54.931Z,12.13
2018-08-20T04:10:24.169Z,12.10
2018-08-20T04:12:53.411Z,11.83
2018-08-20T04:15:22.638Z,12.33
2018-08-20T04:17:51.867Z,12.83
2018-08-20T04:20:21.130Z,12.87
2018-08-20T04:22:50.371Z,12.13
2018-08-20T04:25:19.610Z,12.33
2018-08-20T04:27:48.838Z,12.90
2018-08-20T04:30:18.069Z,12.60
2018-08-20T04:32:47.305Z,11.47
2018-08-20T04:35:16.543Z,10.97
2018-08-20T04:37:45.827Z,12.27
2018-08-20T04:40:15.079Z,10.80
2018-08-20T04:42:44.344Z,11.97
2018-08-20T04:45:13.591Z,12.10
2018-08-20T04:47:42.835Z,13.90
2018-08-20T04:50:12.558Z,12.10
2018-08-20T04:52:41.856Z,11.13
2018-08-20T04:55:11.111Z,10.97
2018-08-20T04:57:40.347Z,11.33
2018-08-20T05:00:10.943Z,11.00
2018-08-20T05:02:40.205Z,10.70
2018-08-20T05:05:09.442Z,11.53
2018-08-20T05:07:38.728Z,11.47
2018-08-20T05:10:08.340Z,11.37
2018-08-20T05:12:37.567Z,10.37
2018-08-20T05:15:06.949Z,10.60
2018-08-20T05:17:36.172Z,10.37
2018-08-20T05:20:06.203Z,10.70
2018-08-20T05:22:35.437Z,11.33
2018-08-20T05:25:05.055Z,10.47
2018-08-20T05:27:34.293Z,11.53
2018-08-20T05:30:03.532Z,9.73
2018-08-20T05:32:32.762Z,9.57
2018-08-20T05:35:02.014Z,8.77
2018-08-20T05:37:31.250Z,8.60
2018-08-20T05:40:00.730Z,8.70
2018-08-20T05:42:29.971Z,8.53
2018-08-20T05:44:59.218Z,7.53
2018-08-20T05:47:28.452Z,8.53
2018-08-20T05:49:57.678Z,8.07
2018-08-20T05:52:27.014Z,8.80
2018-08-20T05:54:56.219Z,8.18
2018-08-20T05:57:25.471Z,7.93
2018-08-20T05:59:54.958Z,7.73
2018-08-20T06:02:24.186Z,8.00
2018-08-20T06:04:53.385Z,7.85
2018-08-20T06:07:22.658Z,7.37
2018-08-20T06:09:51.902Z,8.70
2018-08-20T06:12:21.174Z,10.40
2018-08-20T06:14:50.396Z,9.00
2018-08-20T06:17:19.631Z,8.35
2018-08-20T06:19:48.868Z,8.13
2018-08-20T06:22:18.103Z,7.00
2018-08-20T06:24:47.330Z,6.87
2018-08-20T06:27:16.567Z,8.47
2018-08-20T06:29:45.802Z,7.42
2018-08-20T06:32:15.051Z,7.90
2018-08-20T06:34:44.279Z,7.72
2018-08-20T06:37:13.526Z,7.60
2018-08-20T06:39:42.750Z,7.73
2018-08-20T06:42:12.000Z,8.60
2018-08-20T06:44:41.240Z,7.75
2018-08-20T06:47:10.486Z,6.83
2018-08-20T06:49:39.711Z,7.33
2018-08-20T06:52:08.943Z,7.17
2018-08-20T06:54:39.428Z,6.78
2018-08-20T06:57:08.662Z,8.23
2018-08-20T06:59:38.000Z,7.37
2018-08-20T07:02:07.251Z,7.05
2018-08-20T07:04:36.468Z,9.55
2018-08-20T07:07:05.723Z,7.78
2018-08-20T07:09:34.959Z,6.83
2018-08-20T07:12:04.255Z,7.30
2018-08-20T07:14:33.759Z,8.17
2018-08-20T07:17:02.993Z,6.60
2018-08-20T07:19:32.272Z,9.88
2018-08-20T07:22:01.487Z,7.20
2018-08-20T07:24:30.714Z,7.17
2018-08-20T07:26:59.958Z,7.30
2018-08-20T07:29:43.199Z,8.48
2018-08-20T07:32:13.543Z,8.60
2018-08-20T07:34:43.859Z,8.13
2018-08-20T07:37:14.808Z,7.08
2018-08-20T07:39:46.075Z,6.90
2018-08-20T07:42:15.333Z,6.80
2018-08-20T07:44:45.378Z,9.17
2018-08-20T07:47:14.636Z,7.80
2018-08-20T07:49:43.887Z,9.23
2018-08-20T07:52:13.168Z,8.10
2018-08-20T07:54:42.405Z,6.93
2018-08-20T07:57:11.736Z,7.33
2018-08-20T07:59:40.973Z,6.57
2018-08-20T08:02:10.223Z,6.62
2018-08-20T08:04:39.462Z,5.35
2018-08-20T08:07:08.734Z,7.10
2018-08-20T08:09:37.967Z,5.67
2018-08-20T08:12:07.663Z,5.77
2018-08-20T08:14:36.900Z,6.73
2018-08-20T08:17:06.209Z,7.45
2018-08-20T08:19:35.461Z,7.73
2018-08-20T08:22:04.683Z,5.37
2018-08-20T08:24:33.923Z,7.20
2018-08-20T08:27:03.142Z,5.17
2018-08-20T08:29:32.391Z,10.08
2018-08-20T08:32:01.702Z,7.97
2018-08-20T08:34:30.943Z,4.53
2018-08-20T08:37:00.247Z,4.77
2018-08-20T08:39:30.147Z,5.30
2018-08-20T08:41:59.374Z,5.47
2018-08-20T08:44:28.609Z,7.30
2018-08-20T08:46:57.883Z,4.90
2018-08-20T08:49:27.129Z,4.80
2018-08-20T08:51:56.356Z,7.35
2018-08-20T08:54:25.595Z,4.92
2018-08-20T08:56:54.822Z,5.97
2018-08-20T08:59:24.052Z,5.40
2018-08-20T09:01:53.314Z,5.17
2018-08-20T09:04:22.545Z,5.72
2018-08-20T09:06:51.798Z,7.80
2018-08-20T09:09:21.051Z,4.83
2018-08-20T09:11:50.286Z,5.27
2018-08-20T09:14:19.522Z,5.25
2018-08-20T09:16:48.782Z,5.55
2018-08-20T09:19:18.011Z,5.30
2018-08-20T09:21:47.251Z,4.53
2018-08-20T09:24:16.483Z,5.00
2018-08-20T09:26:45.723Z,5.72
2018-08-20T09:29:14.989Z,4.97
2018-08-20T09:31:44.211Z,6.07
2018-08-20T09:34:13.496Z,4.90
2018-08-20T09:36:42.706Z,6.90
2018-08-20T09:39:11.989Z,7.22
2018-08-20T09:41:41.215Z,5.80
2018-08-20T09:44:10.452Z,4.83
2018-08-20T09:46:39.671Z,5.28
2018-08-20T09:49:08.961Z,6.58
2018-08-20T09:51:38.170Z,6.17
2018-08-20T09:54:07.422Z,8.53
2018-08-20T09:56:36.638Z,5.50
2018-08-20T09:59:05.900Z,5.37
2018-08-20T10:01:35.239Z,5.40
2018-08-20T10:04:05.049Z,4.83
2018-08-20T10:06:34.292Z,5.50
2018-08-20T10:09:04.046Z,5.00
2018-08-20T10:11:33.279Z,6.93
2018-08-20T10:14:02.496Z,5.20
2018-08-20T10:16:31.719Z,5.80
2018-08-20T10:19:00.955Z,5.10
2018-08-20T10:21:30.222Z,4.87
2018-08-20T10:23:59.515Z,6.23
2018-08-20T10:26:28.759Z,5.00
2018-08-20T10:28:58.014Z,6.37
2018-08-20T10:31:27.239Z,6.17
2018-08-20T10:33:56.477Z,4.80
2018-08-20T10:36:25.708Z,5.20
2018-08-20T10:38:54.946Z,5.35
2018-08-20T10:41:24.205Z,5.97
2018-08-20T10:43:53.423Z,5.33
2018-08-20T10:46:28.853Z,5.20
2018-08-20T10:48:58.788Z,5.53
2018-08-20T10:51:28.040Z,4.80
2018-08-20T10:53:58.373Z,9.58
2018-08-20T10:56:27.899Z,6.08
2018-08-20T10:58:57.101Z,5.57
2018-08-20T11:01:26.306Z,5.23
2018-08-20T11:03:57.069Z,5.22
2018-08-20T11:06:27.476Z,5.17
2018-08-20T11:08:56.978Z,4.85
2018-08-20T11:11:26.215Z,5.80
2018-08-20T11:13:55.439Z,4.93
2018-08-20T11:16:24.720Z,5.10
2018-08-20T11:18:53.980Z,4.90
2018-08-20T11:21:23.203Z,7.17
2018-08-20T11:23:52.458Z,8.28
2018-08-20T11:26:21.694Z,11.60
2018-08-20T11:28:50.925Z,4.60
2018-08-20T11:36:17.952Z,6.58
2018-08-20T11:38:47.306Z,4.48
2018-08-20T11:41:16.584Z,4.95
2018-08-20T11:43:45.854Z,5.67
2018-08-20T11:46:15.086Z,7.43
2018-08-20T11:48:44.319Z,5.37
2018-08-20T11:51:13.575Z,5.50
2018-08-20T11:53:42.971Z,4.75
2018-08-20T11:56:12.221Z,4.72
2018-08-20T11:58:41.447Z,5.17
2018-08-20T12:01:10.686Z,5.40
2018-08-20T12:03:39.915Z,4.22
2018-08-20T12:06:09.155Z,6.33
2018-08-20T12:08:38.380Z,4.90
2018-08-20T12:11:07.627Z,7.13
2018-08-20T12:13:36.838Z,6.03
2018-08-20T12:16:06.099Z,5.05
2018-08-20T12:18:35.312Z,6.13
2018-08-20T12:21:04.559Z,5.90
2018-08-20T12:23:33.779Z,5.10
2018-08-20T12:26:03.007Z,5.62
2018-08-20T12:28:32.227Z,4.55
2018-08-20T12:31:01.467Z,6.95
2018-08-20T12:33:31.086Z,5.10
2018-08-20T12:36:00.323Z,4.83
2018-08-20T12:38:29.663Z,5.40
2018-08-20T12:40:58.867Z,5.28
2018-08-20T12:43:28.092Z,5.12
2018-08-20T12:45:57.339Z,5.87
2018-08-20T12:48:26.566Z,5.30
2018-08-20T12:50:55.779Z,5.50
2018-08-20T12:53:25.024Z,5.65
2018-08-20T12:55:54.247Z,4.97
2018-08-20T12:58:23.516Z,7.43
2018-08-20T13:00:52.763Z,6.10
2018-08-20T13:03:21.963Z,5.15
2018-08-20T13:05:51.207Z,7.55
2018-08-20T13:08:20.466Z,7.33
2018-08-20T13:10:49.686Z,6.93
2018-08-20T13:13:18.933Z,5.40
2018-08-20T13:15:48.212Z,5.22
2018-08-20T13:18:17.427Z,6.47
2018-08-20T13:20:46.681Z,5.00
2018-08-20T13:23:15.931Z,5.73
2018-08-20T13:25:45.156Z,5.07
2018-08-20T13:28:14.411Z,4.50
2018-08-20T13:30:43.912Z,5.30
2018-08-20T13:33:13.091Z,6.20
2018-08-20T13:35:42.319Z,5.90
2018-08-20T13:38:11.570Z,4.80
2018-08-20T13:40:42.103Z,5.15
2018-08-20T13:43:11.351Z,8.28
2018-08-20T13:45:40.612Z,4.90
2018-08-20T13:48:09.890Z,5.00
2018-08-20T13:50:39.219Z,5.00
2018-08-20T13:53:08.488Z,4.70
2018-08-20T13:55:37.688Z,4.97
2018-08-20T13:58:06.979Z,5.43
2018-08-20T14:00:36.231Z,4.37
2018-08-20T14:03:05.511Z,4.60
2018-08-20T14:05:34.755Z,5.72
2018-08-20T14:08:04.043Z,4.53
2018-08-20T14:10:33.298Z,6.50
2018-08-20T14:13:02.555Z,5.20
2018-08-20T14:15:31.790Z,6.03
2018-08-20T14:18:01.055Z,5.17
2018-08-20T14:20:30.298Z,5.07
2018-08-20T14:22:59.540Z,5.17
2018-08-20T14:25:28.761Z,8.43
2018-08-20T14:27:57.976Z,6.42
2018-08-20T14:30:27.260Z,6.45
2018-08-20T14:32:56.468Z,6.45
2018-08-20T14:35:25.697Z,4.87
2018-08-20T14:37:54.947Z,6.00
2018-08-20T14:40:24.202Z,5.05
2018-08-20T14:42:53.755Z,6.42
2018-08-20T14:45:22.967Z,7.13
2018-08-20T14:47:52.235Z,4.87
2018-08-20T14:50:21.461Z,7.70
2018-08-20T14:52:51.911Z,5.35
2018-08-20T14:55:21.168Z,7.40
2018-08-20T14:57:50.397Z,4.80
2018-08-20T15:00:19.655Z,6.75
2018-08-20T15:02:48.858Z,5.97
2018-08-20T15:05:18.103Z,5.80
2018-08-20T15:07:47.338Z,5.22
2018-08-20T15:10:16.604Z,5.50
2018-08-20T15:12:45.835Z,5.67
2018-08-20T15:15:15.131Z,6.55
2018-08-20T15:17:44.316Z,7.67
2018-08-20T15:20:13.554Z,5.97
2018-08-20T15:22:42.799Z,5.78
2018-08-20T15:25:12.049Z,4.73
2018-08-20T15:27:41.268Z,7.20
2018-08-20T15:30:10.519Z,5.17
2018-08-20T15:32:39.761Z,9.23
2018-08-20T15:35:08.969Z,6.13
2018-08-20T15:37:38.201Z,7.97
2018-08-20T15:40:07.461Z,6.92
2018-08-20T15:42:36.717Z,5.35
2018-08-20T15:45:06.088Z,7.08
2018-08-20T15:47:35.336Z,4.87
2018-08-20T15:50:04.666Z,7.03
2018-08-20T15:52:33.891Z,4.92
2018-08-20T15:55:03.136Z,5.03
2018-08-20T15:57:32.371Z,5.47
2018-08-20T16:00:01.612Z,5.53
2018-08-20T16:02:30.840Z,6.50
2018-08-20T16:05:01.337Z,6.47
2018-08-20T16:07:30.889Z,6.42
2018-08-20T16:10:00.456Z,5.93
2018-08-20T16:12:29.793Z,8.43
2018-08-20T16:14:59.062Z,6.63
2018-08-20T16:17:28.295Z,5.47
2018-08-20T16:19:57.543Z,5.67
2018-08-20T16:22:26.769Z,5.17
2018-08-20T16:24:56.030Z,5.97
2018-08-20T16:27:25.316Z,6.12
2018-08-20T16:29:54.579Z,6.08
2018-08-20T16:32:23.975Z,5.55
2018-08-20T16:34:53.186Z,5.70
2018-08-20T16:37:22.400Z,7.13
2018-08-20T16:39:51.632Z,5.25
2018-08-20T16:42:20.888Z,7.70
2018-08-20T16:44:50.138Z,5.72
2018-08-20T16:47:19.364Z,5.97
2018-08-20T16:49:48.616Z,6.77
2018-08-20T16:52:17.854Z,5.15
2018-08-20T16:54:47.087Z,7.15
2018-08-20T16:57:16.376Z,5.90
2018-08-20T16:59:45.631Z,5.83
2018-08-20T17:02:18.983Z,6.30
2018-08-20T17:04:48.228Z,8.40
2018-08-20T17:07:17.470Z,4.75
2018-08-20T17:09:46.757Z,6.25
2018-08-20T17:12:16.022Z,5.87
2018-08-20T17:14:45.275Z,5.60
2018-08-20T17:17:14.502Z,7.53
2018-08-20T17:19:45.673Z,10.48
2018-08-20T17:22:15.207Z,7.12
2018-08-20T17:24:44.439Z,8.67
2018-08-20T17:27:13.687Z,7.72
2018-08-20T17:29:42.923Z,7.43
2018-08-20T17:32:13.422Z,5.60
2018-08-20T17:34:43.125Z,5.67
2018-08-20T17:37:12.391Z,7.00
2018-08-20T17:40:02.030Z,7.20
2018-08-20T17:42:32.179Z,6.10
2018-08-20T17:45:02.149Z,5.35
2018-08-20T17:47:32.146Z,6.83
2018-08-20T17:50:01.738Z,6.23
2018-08-20T17:52:35.056Z,6.42
2018-08-20T17:55:05.309Z,7.33
2018-08-20T17:57:34.479Z,7.10
2018-08-20T18:00:28.290Z,5.97
2018-08-20T18:02:57.628Z,6.57
2018-08-20T18:05:26.867Z,8.98
2018-08-20T18:07:56.099Z,6.47
2018-08-20T18:10:25.331Z,9.50
2018-08-20T18:12:54.556Z,5.50
2018-08-20T18:15:23.798Z,7.97
2018-08-20T18:17:53.026Z,10.45
2018-08-20T18:20:22.281Z,9.10
2018-08-20T18:22:51.545Z,5.95
2018-08-20T18:25:21.552Z,6.97
2018-08-20T18:27:50.783Z,7.27
2018-08-20T18:30:20.678Z,10.24
2018-08-20T18:32:49.883Z,7.03
2018-08-20T18:35:23.994Z,6.92
2018-08-20T18:37:53.280Z,8.50
2018-08-20T18:40:22.523Z,6.63
2018-08-20T18:42:51.758Z,8.58
2018-08-20T18:45:20.995Z,8.60
2018-08-20T18:47:50.226Z,8.85
2018-08-20T18:50:19.475Z,8.80
2018-08-20T18:52:48.723Z,8.03
2018-08-20T18:55:17.945Z,8.08
2018-08-20T18:57:47.171Z,7.15
2018-08-20T19:00:16.552Z,8.68
2018-08-20T19:02:57.446Z,10.17
2018-08-20T19:05:26.708Z,8.35
2018-08-20T19:07:55.926Z,9.87
2018-08-20T19:10:28.981Z,7.70
2018-08-20T19:12:58.225Z,7.53
2018-08-20T19:15:39.811Z,8.85
2018-08-20T19:18:11.684Z,7.27
2018-08-20T19:20:41.854Z,9.88
2018-08-20T19:23:11.171Z,7.17
2018-08-20T19:25:40.442Z,9.25
2018-08-20T19:28:24.664Z,8.00
2018-08-20T19:30:55.428Z,7.35
2018-08-20T19:33:26.958Z,9.30
2018-08-20T19:35:56.422Z,8.23
2018-08-20T19:38:25.671Z,7.40
2018-08-20T19:41:04.334Z,8.48
2018-08-20T19:43:38.650Z,8.05
2018-08-20T19:46:07.922Z,9.10
2018-08-20T19:48:37.236Z,8.73
2018-08-20T19:51:08.624Z,8.35
2018-08-20T19:53:37.882Z,10.35
2018-08-20T19:56:12.988Z,9.00
2018-08-20T19:58:44.046Z,9.47
2018-08-20T20:01:17.314Z,8.00
2018-08-20T20:03:48.051Z,8.25
2018-08-20T20:06:18.335Z,9.30
2018-08-20T20:08:47.567Z,7.53
2018-08-20T20:11:23.818Z,8.80
2018-08-20T20:13:55.887Z,8.20
2018-08-20T20:16:25.480Z,8.00
2018-08-20T20:18:54.903Z,7.60
2018-08-20T20:21:24.143Z,7.78
2018-08-20T20:23:53.465Z,8.95
2018-08-20T20:26:22.641Z,9.23
2018-08-20T20:28:51.909Z,8.00
2018-08-20T20:31:21.155Z,11.67
2018-08-20T20:33:50.379Z,8.58
2018-08-20T20:36:24.051Z,12.07
2018-08-20T20:38:53.549Z,10.30
2018-08-20T20:41:22.980Z,11.00
2018-08-20T20:43:52.372Z,8.60
2018-08-20T20:46:21.723Z,8.87
2018-08-20T20:48:51.922Z,8.60
2018-08-20T20:51:21.194Z,8.85
2018-08-20T20:53:50.443Z,11.63
2018-08-20T20:56:19.683Z,7.93
2018-08-20T20:58:48.910Z,10.08
2018-08-20T21:01:18.145Z,8.65
2018-08-20T21:03:47.398Z,9.05
2018-08-20T21:06:16.668Z,10.23
2018-08-20T21:08:47.724Z,10.50
2018-08-20T21:11:18.091Z,13.47
2018-08-20T21:13:47.477Z,12.00
2018-08-20T21:16:18.306Z,10.68
2018-08-20T21:18:58.091Z,9.33
2018-08-20T21:21:27.946Z,10.63
2018-08-20T21:23:58.170Z,9.50
2018-08-20T21:26:27.410Z,11.00
2018-08-20T21:28:56.950Z,10.73
2018-08-20T21:31:27.387Z,8.43
2018-08-20T21:33:59.958Z,11.18
2018-08-20T21:36:29.199Z,12.25
2018-08-20T21:38:58.444Z,9.05
2018-08-20T21:41:28.826Z,12.17
2018-08-20T21:43:58.104Z,9.87
2018-08-20T21:46:27.367Z,11.85
2018-08-20T21:48:56.578Z,10.20
2018-08-20T21:51:27.966Z,11.20
2018-08-20T21:53:57.251Z,10.13
2018-08-20T21:56:38.416Z,11.60
2018-08-20T21:59:07.639Z,10.60
2018-08-20T22:01:36.862Z,10.13
2018-08-20T22:04:10.171Z,11.97
2018-08-20T22:06:40.631Z,9.88
2018-08-20T22:09:09.854Z,10.03
2018-08-20T22:11:39.070Z,9.73
2018-08-20T22:14:08.288Z,10.25
2018-08-20T22:16:37.559Z,9.95
2018-08-20T22:19:06.858Z,9.43
2018-08-20T22:21:36.114Z,10.40
2018-08-20T22:24:05.406Z,9.67
2018-08-20T22:26:34.657Z,10.20
2018-08-20T22:29:03.891Z,9.03
2018-08-20T22:31:33.108Z,9.73
2018-08-20T22:34:06.462Z,9.33
2018-08-20T22:36:35.683Z,10.63
2018-08-20T22:39:07.793Z,9.27
2018-08-20T22:41:37.002Z,9.63
2018-08-20T22:44:06.219Z,12.25
2018-08-20T22:46:35.454Z,9.65
2018-08-20T22:49:04.652Z,10.13
2018-08-20T22:51:33.882Z,12.80
2018-08-20T22:54:03.078Z,10.63
2018-08-20T22:56:34.303Z,15.50
2018-08-20T22:59:09.794Z,10.07
2018-08-20T23:01:39.025Z,11.77
2018-08-20T23:04:08.508Z,9.70
2018-08-20T23:06:37.746Z,10.13
2018-08-20T23:09:26.816Z,10.33
2018-08-20T23:11:56.071Z,10.53
2018-08-20T23:14:25.279Z,11.83
2018-08-20T23:16:54.506Z,10.33
2018-08-20T23:19:23.722Z,13.77
2018-08-20T23:21:54.775Z,10.57
2018-08-20T23:24:23.990Z,13.30
2018-08-20T23:26:53.206Z,9.53
2018-08-20T23:29:22.415Z,9.37
2018-08-20T23:31:51.636Z,10.70
2018-08-20T23:34:20.860Z,11.10
2018-08-20T23:36:50.089Z,10.73
2018-08-20T23:39:19.296Z,12.20
2018-08-20T23:41:48.560Z,12.67
2018-08-20T23:44:18.012Z,11.10
2018-08-20T23:46:50.468Z,14.57
2018-08-20T23:49:19.710Z,10.93
2018-08-20T23:51:48.927Z,12.13
2018-08-20T23:54:18.142Z,12.33
2018-08-20T23:56:47.399Z,12.57
2018-08-20T23:59:16.645Z,13.03
